Portada
METAR-TAF:

METAR-TAF

Aeropuertos :

Aeropuerto Internacional de Fairbanks

Fairbanks, Alaska, Estados Unidos

latitud: 64-48-14N, longitud: 147-52-34W, altitud: 132 m

Observación

El informe se hizo hace 1 hora y 3 minutos, a las 04:53 UTC
Viento calma
Temperatura -25°C
Humedad 69%
Presión 1014 hPa
Visibilidad: 16.1 km
Cielo despejado

METAR: PAFA 160453Z 00000KT 10SM CLR M25/M29 A2993 RMK AO2 SLP152 T12501289 PNO

Hora: 20:56 (05:56 UTC)

Pronóstico

El informe se hizo hace 29 minutos, a las 05:27 UTC
Pronóstico válido del 16 a las 06 UTC al 17 a las 12 UTC
Viento 3 kt del noreste
Visibilidad: 10 km
Escasas nubes a una altura de 10000 ft

TAF: PAFA 160527Z 1606/1712 05003KT P6SM FEW100

Observaciones y pronósticos meteorológicos de más de 4000 aeropuertos (mensajes METAR y TAF).

Los puntos amarillos y rojos representan las estaciones disponibles.

Ponga el ratón en el punto deseado para ver el nombre de la estación.

Haga clic para ver las observaciones y los pronósticos meteorológicos.

Para cambiar el mapa : haga clic en los botones verdes con una cruz de color negro para hacer un zoom, en el botón verde con un guión para alejar o en las flechas verdes para mapas adyacentes.


METAR-TAF: